createdAt,value
2022-08-02T00:03:58.340Z,100225.38
2022-08-02T00:08:59.785Z,100227.03
2022-08-02T00:14:01.205Z,100218.28
2022-08-02T00:19:02.629Z,100221.84
2022-08-02T00:24:28.700Z,100209.19
2022-08-02T00:29:25.856Z,100218.53
2022-08-02T00:34:32.060Z,100225.66
2022-08-02T00:39:36.590Z,100228.41
2022-08-02T00:44:38.094Z,100226.19
2022-08-02T00:49:39.601Z,100228.94
2022-08-02T00:54:41.090Z,100220.94
2022-08-02T00:59:42.490Z,100223.44
2022-08-02T01:04:43.906Z,100229.50
2022-08-02T01:09:45.541Z,100227.53
2022-08-02T01:14:47.951Z,100219.28
2022-08-02T01:20:07.789Z,100206.09
2022-08-02T01:25:22.945Z,100219.31
2022-08-02T01:30:24.416Z,100219.84
2022-08-02T01:35:47.092Z,100223.66
2022-08-02T01:40:52.579Z,100226.41
2022-08-02T01:45:54.010Z,100234.41
2022-08-02T01:50:57.892Z,100238.75
2022-08-02T01:55:59.637Z,100236.00
2022-08-02T02:01:01.228Z,100231.06
2022-08-02T02:06:03.416Z,100230.22
2022-08-02T02:12:06.535Z,100237.69
2022-08-02T02:16:27.252Z,100243.94
2022-08-02T02:21:28.965Z,100231.31
2022-08-02T02:26:32.847Z,100240.88
2022-08-02T02:31:37.969Z,100245.31
2022-08-02T02:36:41.214Z,100244.47
2022-08-02T02:41:42.797Z,100237.91
2022-08-02T02:46:44.213Z,100249.47
2022-08-02T02:51:45.637Z,100259.66
2022-08-02T02:56:47.069Z,100268.16
2022-08-02T03:01:55.459Z,100262.94
2022-08-02T03:07:00.349Z,100270.31
2022-08-02T03:12:01.753Z,100274.69
2022-08-02T03:17:03.191Z,100276.06
2022-08-02T03:22:04.649Z,100287.03
2022-08-02T03:27:06.095Z,100281.03
2022-08-02T03:32:07.501Z,100274.69
2022-08-02T03:37:08.933Z,100265.91
2022-08-02T03:42:10.808Z,100263.16
2022-08-02T03:47:17.456Z,100266.72
2022-08-02T03:52:18.865Z,100274.97
2022-08-02T03:57:20.294Z,100282.19
2022-08-02T04:02:21.693Z,100278.03
2022-08-02T04:08:33.741Z,100288.69
2022-08-02T04:12:44.522Z,100293.38
2022-08-02T04:17:49.512Z,100296.44
2022-08-02T04:22:59.007Z,100295.28
2022-08-02T04:28:16.675Z,100307.97
2022-08-02T04:33:19.265Z,100311.22
2022-08-02T04:38:20.673Z,100328.28
2022-08-02T04:43:22.319Z,100336.53
2022-08-02T04:48:24.220Z,100334.91
2022-08-02T04:53:25.665Z,100347.19
2022-08-02T04:58:42.284Z,100343.06
2022-08-02T05:03:43.681Z,100359.31
2022-08-02T05:08:52.744Z,100347.28
2022-08-02T05:13:58.775Z,100342.53
2022-08-02T05:19:01.254Z,100343.94
2022-08-02T05:24:04.081Z,100348.66
2022-08-02T05:29:05.897Z,100344.75
2022-08-02T05:34:11.712Z,100341.47
2022-08-02T05:39:18.688Z,100346.75
2022-08-02T05:44:20.688Z,100347.50
2022-08-02T05:49:22.166Z,100347.00
2022-08-02T05:54:39.718Z,100338.50
2022-08-02T06:00:17.861Z,100348.38
2022-08-02T06:05:20.202Z,100358.31
2022-08-02T06:10:21.873Z,100350.06
2022-08-02T06:15:23.273Z,100358.91
2022-08-02T06:20:24.697Z,100361.38
2022-08-02T06:25:51.081Z,100362.25
2022-08-02T06:30:47.761Z,100369.66
2022-08-02T06:36:05.473Z,100374.31
2022-08-02T06:41:09.118Z,100367.16
2022-08-02T06:46:38.109Z,100365.84
2022-08-02T06:51:34.297Z,100358.41
2022-08-02T06:56:35.704Z,100363.13
2022-08-02T07:01:38.708Z,100363.66
2022-08-02T07:06:40.681Z,100355.75
2022-08-02T07:11:42.085Z,100352.69
2022-08-02T07:16:43.487Z,100350.78
2022-08-02T07:21:57.488Z,100359.34
2022-08-02T07:27:11.359Z,100354.88
2022-08-02T07:32:15.317Z,100361.97
2022-08-02T07:37:35.304Z,100343.31
2022-08-02T07:42:38.316Z,100338.19
2022-08-02T07:47:40.101Z,100342.78
2022-08-02T07:52:41.779Z,100338.19
2022-08-02T07:57:46.388Z,100334.78
2022-08-02T08:02:48.433Z,100330.66
2022-08-02T08:07:49.837Z,100325.94
2022-08-02T08:12:51.310Z,100319.41
2022-08-02T08:17:52.710Z,100320.44
2022-08-02T08:22:54.116Z,100314.44
2022-08-02T08:27:55.597Z,100316.09
2022-08-02T08:32:58.567Z,100324.16
2022-08-02T08:38:04.203Z,100309.78
2022-08-02T08:43:08.546Z,100310.75
2022-08-02T08:48:15.861Z,100313.59
2022-08-02T08:53:36.848Z,100308.41
2022-08-02T08:58:38.977Z,100314.75
2022-08-02T09:03:40.550Z,100304.88
2022-08-02T09:08:41.978Z,100297.47
2022-08-02T09:13:56.811Z,100303.81
2022-08-02T09:18:58.415Z,100298.06
2022-08-02T09:23:59.856Z,100294.19
2022-08-02T09:29:01.841Z,100292.88
2022-08-02T09:34:03.406Z,100297.00
2022-08-02T09:39:06.298Z,100298.38
2022-08-02T09:44:15.926Z,100280.47
2022-08-02T09:49:18.449Z,100283.50
2022-08-02T09:54:24.345Z,100274.69
2022-08-02T09:59:26.091Z,100266.44
2022-08-02T10:04:29.945Z,100266.19
2022-08-02T10:09:32.497Z,100271.72
2022-08-02T10:14:34.586Z,100254.03
2022-08-02T10:20:00.777Z,100248.34
2022-08-02T10:24:57.479Z,100254.34
2022-08-02T10:29:59.857Z,100253.25
2022-08-02T10:35:18.498Z,100247.25
2022-08-02T10:40:26.133Z,100242.00
2022-08-02T10:45:27.541Z,100234.59
2022-08-02T10:50:47.126Z,100234.03
2022-08-02T10:55:48.525Z,100226.84
2022-08-02T11:00:50.360Z,100223.56
2022-08-02T11:06:07.122Z,100223.00
2022-08-02T11:11:08.370Z,100207.31
2022-08-02T11:16:12.069Z,100205.66
2022-08-02T11:21:26.557Z,100205.34
2022-08-02T11:26:30.599Z,100209.19
2022-08-02T11:31:39.695Z,100235.34
2022-08-02T11:36:50.936Z,100225.66
2022-08-02T11:41:57.332Z,100225.41
2022-08-02T11:47:03.115Z,100220.69
2022-08-02T11:52:06.153Z,100214.94
2022-08-02T11:57:17.042Z,100221.59
2022-08-02T12:02:25.358Z,100201.47
2022-08-02T12:07:36.182Z,100198.75
2022-08-02T12:12:57.842Z,100200.44
2022-08-02T12:18:18.119Z,100193.00
2022-08-02T12:23:19.589Z,100187.53
2022-08-02T12:28:22.883Z,100171.56
2022-08-02T12:33:25.486Z,100162.16
2022-08-02T12:38:26.903Z,100151.97
2022-08-02T12:43:28.310Z,100156.13
2022-08-02T12:48:37.810Z,100151.44
2022-08-02T12:53:39.931Z,100148.97
2022-08-02T12:58:50.770Z,100146.75
2022-08-02T13:04:09.897Z,100144.81
2022-08-02T13:09:15.566Z,100143.44
2022-08-02T13:14:16.990Z,100136.81
2022-08-02T13:19:18.627Z,100136.81
2022-08-02T13:24:39.446Z,100131.03
2022-08-02T13:29:41.524Z,100132.44
2022-08-02T13:34:42.921Z,100101.81
2022-08-02T13:40:00.064Z,100125.25
2022-08-02T13:45:13.685Z,100110.59
2022-08-02T13:50:15.943Z,100116.41
2022-08-02T13:55:17.413Z,100109.50
2022-08-02T14:00:18.821Z,100111.16
2022-08-02T14:05:47.179Z,100119.44
2022-08-02T14:10:50.276Z,100109.22
2022-08-02T14:15:51.733Z,100097.94
2022-08-02T14:20:53.138Z,100099.59
2022-08-02T14:25:54.610Z,100092.44
2022-08-02T14:30:56.055Z,100083.06
2022-08-02T14:35:57.465Z,100088.56
2022-08-02T14:40:58.877Z,100079.75
2022-08-02T14:46:00.276Z,100068.22
2022-08-02T14:51:01.678Z,100074.78
2022-08-02T14:56:03.174Z,100072.09
2022-08-02T15:01:04.709Z,100066.53
2022-08-02T15:06:06.813Z,100066.81
2022-08-02T15:11:08.237Z,100062.13
2022-08-02T15:16:09.793Z,100052.81
2022-08-02T15:21:40.240Z,100043.44
2022-08-02T15:26:32.577Z,100051.69
2022-08-02T15:31:34.771Z,100045.06
2022-08-02T15:36:37.466Z,100049.50
2022-08-02T15:41:38.889Z,100040.94
2022-08-02T15:46:40.311Z,100048.38
2022-08-02T15:51:41.713Z,100050.59
2022-08-02T15:56:43.121Z,100051.97
2022-08-02T16:01:47.547Z,100046.19
2022-08-02T16:06:49.337Z,100048.13
2022-08-02T16:11:50.760Z,100050.28
2022-08-02T16:16:52.161Z,100042.31
2022-08-02T16:21:53.773Z,100038.72
2022-08-02T16:26:55.220Z,100038.44
2022-08-02T16:31:56.699Z,100044.78
2022-08-02T16:36:58.176Z,100035.16
2022-08-02T16:41:59.662Z,100040.09
2022-08-02T16:47:02.335Z,100035.13
2022-08-02T16:52:03.969Z,100042.28
2022-08-02T16:57:07.378Z,100043.97
2022-08-02T17:02:11.399Z,100041.50
2022-08-02T17:08:15.649Z,100040.38
2022-08-02T17:12:35.162Z,100040.09
2022-08-02T17:17:40.573Z,100042.28
2022-08-02T17:22:44.731Z,100048.94
2022-08-02T17:27:46.137Z,100052.75
2022-08-02T17:32:47.589Z,100054.72
2022-08-02T17:37:54.324Z,100049.22
2022-08-02T17:42:56.366Z,100061.03
2022-08-02T17:48:04.039Z,100055.25
2022-08-02T17:53:06.911Z,100052.22
2022-08-02T17:58:12.493Z,100056.09
2022-08-02T18:03:14.250Z,100054.69
2022-08-02T18:08:18.348Z,100050.84
2022-08-02T18:13:22.820Z,100055.25
2022-08-02T18:18:26.585Z,100055.25
2022-08-02T18:23:30.945Z,100057.47
2022-08-02T18:28:39.301Z,100055.81
2022-08-02T18:33:55.320Z,100067.63
2022-08-02T18:39:08.083Z,100066.28
2022-08-02T18:44:10.710Z,100072.31
2022-08-02T18:49:17.341Z,100071.25
2022-08-02T18:54:26.677Z,100071.22
2022-08-02T18:59:36.854Z,100075.91
2022-08-02T19:04:43.426Z,100078.66
2022-08-02T19:09:49.273Z,100080.31
2022-08-02T19:14:50.754Z,100078.41
2022-08-02T19:19:52.166Z,100092.16
2022-08-02T19:25:00.077Z,100090.22
2022-08-02T19:30:07.523Z,100097.41
2022-08-02T19:35:19.311Z,100092.97
2022-08-02T19:40:31.477Z,100105.66
2022-08-02T19:45:49.967Z,100102.34
2022-08-02T19:50:56.194Z,100103.72
2022-08-02T19:56:02.909Z,100118.31
2022-08-02T20:01:04.725Z,100118.84
2022-08-02T20:06:06.836Z,100118.06
2022-08-02T20:11:14.983Z,100115.84
2022-08-02T20:16:27.262Z,100126.88
2022-08-02T20:21:35.490Z,100127.13
2022-08-02T20:26:47.985Z,100134.84
2022-08-02T20:31:50.310Z,100131.25
2022-08-02T20:36:53.782Z,100135.41
2022-08-02T20:41:57.288Z,100127.69
2022-08-02T20:47:01.775Z,100133.19
2022-08-02T20:52:03.865Z,100136.22
2022-08-02T20:57:48.472Z,100134.84
2022-08-02T21:02:46.234Z,100131.53
2022-08-02T21:07:53.396Z,100132.38
2022-08-02T21:12:56.392Z,100131.53
2022-08-02T21:18:02.395Z,100122.72
2022-08-02T21:23:07.756Z,100127.41
2022-08-02T21:28:21.613Z,100116.09
2022-08-02T21:33:24.574Z,100124.38
2022-08-02T21:38:36.550Z,100126.88
2022-08-02T21:43:38.644Z,100123.00
2022-08-02T21:48:40.608Z,100122.44
2022-08-02T21:53:43.055Z,100127.13
2022-08-02T21:58:44.561Z,100122.44
2022-08-02T22:03:54.991Z,100127.13
2022-08-02T22:08:57.281Z,100116.41
2022-08-02T22:13:59.512Z,100122.16
2022-08-02T22:19:00.918Z,100119.97
2022-08-02T22:24:02.394Z,100121.06
2022-08-02T22:29:04.290Z,100128.50
2022-08-02T22:34:11.662Z,100138.44
2022-08-02T22:39:32.024Z,100134.84
2022-08-02T22:44:35.042Z,100137.59
2022-08-02T22:49:36.898Z,100138.94
2022-08-02T22:54:38.770Z,100141.44
2022-08-02T22:59:40.988Z,100143.09
2022-08-02T23:04:42.778Z,100136.75
2022-08-02T23:09:44.176Z,100141.44
2022-08-02T23:14:50.125Z,100144.97
2022-08-02T23:19:51.565Z,100148.03
2022-08-02T23:24:53.032Z,100145.81
2022-08-02T23:29:54.489Z,100148.03
2022-08-02T23:34:56.337Z,100146.09
2022-08-02T23:39:57.830Z,100148.84
2022-08-02T23:44:59.241Z,100146.59
2022-08-02T23:50:00.641Z,100146.63
2022-08-02T23:55:02.040Z,100142.22
